sensor_id;sensor_type;location;lat;lon;timestamp;P1;durP1;ratioP1;P2;durP2;ratioP2
57295;SDS011;43146;50.976;18.216;2023-07-16T00:02:13;11.60;;;5.80;;
57295;SDS011;43146;50.976;18.216;2023-07-16T00:04:38;11.90;;;5.70;;
57295;SDS011;43146;50.976;18.216;2023-07-16T00:07:04;11.40;;;6.20;;
57295;SDS011;43146;50.976;18.216;2023-07-16T00:09:30;12.00;;;6.10;;
57295;SDS011;43146;50.976;18.216;2023-07-16T00:11:56;10.90;;;5.80;;
57295;SDS011;43146;50.976;18.216;2023-07-16T00:14:22;11.20;;;5.90;;
57295;SDS011;43146;50.976;18.216;2023-07-16T00:16:48;11.80;;;5.80;;
57295;SDS011;43146;50.976;18.216;2023-07-16T00:19:14;11.40;;;6.20;;
57295;SDS011;43146;50.976;18.216;2023-07-16T00:21:40;15.50;;;6.10;;
57295;SDS011;43146;50.976;18.216;2023-07-16T00:24:05;13.20;;;6.40;;
57295;SDS011;43146;50.976;18.216;2023-07-16T00:26:31;14.00;;;6.30;;
57295;SDS011;43146;50.976;18.216;2023-07-16T00:28:57;15.20;;;6.90;;
57295;SDS011;43146;50.976;18.216;2023-07-16T00:31:22;11.80;;;5.80;;
57295;SDS011;43146;50.976;18.216;2023-07-16T00:33:48;11.30;;;6.10;;
57295;SDS011;43146;50.976;18.216;2023-07-16T00:36:15;12.20;;;6.20;;
57295;SDS011;43146;50.976;18.216;2023-07-16T00:38:40;12.10;;;6.30;;
57295;SDS011;43146;50.976;18.216;2023-07-16T00:41:08;12.80;;;5.90;;
57295;SDS011;43146;50.976;18.216;2023-07-16T00:43:34;13.90;;;6.70;;
57295;SDS011;43146;50.976;18.216;2023-07-16T00:45:59;11.50;;;5.90;;
57295;SDS011;43146;50.976;18.216;2023-07-16T00:48:25;13.20;;;6.10;;
57295;SDS011;43146;50.976;18.216;2023-07-16T00:50:52;11.40;;;6.30;;
57295;SDS011;43146;50.976;18.216;2023-07-16T00:53:19;11.40;;;5.40;;
57295;SDS011;43146;50.976;18.216;2023-07-16T00:55:45;11.60;;;5.90;;
57295;SDS011;43146;50.976;18.216;2023-07-16T00:58:11;11.70;;;5.80;;
57295;SDS011;43146;50.976;18.216;2023-07-16T01:00:37;11.80;;;6.20;;
57295;SDS011;43146;50.976;18.216;2023-07-16T01:03:05;13.70;;;5.90;;
57295;SDS011;43146;50.976;18.216;2023-07-16T01:08:32;13.20;;;6.10;;
57295;SDS011;43146;50.976;18.216;2023-07-16T01:11:02;14.40;;;6.30;;
57295;SDS011;43146;50.976;18.216;2023-07-16T01:13:33;12.10;;;6.50;;
57295;SDS011;43146;50.976;18.216;2023-07-16T01:16:00;13.70;;;6.40;;
57295;SDS011;43146;50.976;18.216;2023-07-16T01:18:25;12.30;;;5.70;;
57295;SDS011;43146;50.976;18.216;2023-07-16T01:20:51;11.30;;;5.90;;
57295;SDS011;43146;50.976;18.216;2023-07-16T01:23:35;13.00;;;5.50;;
57295;SDS011;43146;50.976;18.216;2023-07-16T01:26:26;12.70;;;6.00;;
57295;SDS011;43146;50.976;18.216;2023-07-16T01:31:21;12.00;;;6.50;;
57295;SDS011;43146;50.976;18.216;2023-07-16T01:33:48;12.20;;;5.90;;
57295;SDS011;43146;50.976;18.216;2023-07-16T01:36:16;11.20;;;6.20;;
57295;SDS011;43146;50.976;18.216;2023-07-16T01:38:42;12.90;;;5.90;;
57295;SDS011;43146;50.976;18.216;2023-07-16T01:41:08;11.90;;;6.10;;
57295;SDS011;43146;50.976;18.216;2023-07-16T01:43:34;12.60;;;6.20;;
57295;SDS011;43146;50.976;18.216;2023-07-16T01:45:59;11.80;;;6.60;;
57295;SDS011;43146;50.976;18.216;2023-07-16T01:51:01;15.10;;;6.50;;
57295;SDS011;43146;50.976;18.216;2023-07-16T01:53:27;12.60;;;6.70;;
57295;SDS011;43146;50.976;18.216;2023-07-16T01:55:53;12.80;;;6.20;;
57295;SDS011;43146;50.976;18.216;2023-07-16T01:58:19;11.60;;;5.90;;
57295;SDS011;43146;50.976;18.216;2023-07-16T02:00:45;12.30;;;6.30;;
57295;SDS011;43146;50.976;18.216;2023-07-16T02:03:11;12.20;;;6.50;;
57295;SDS011;43146;50.976;18.216;2023-07-16T02:05:37;11.90;;;6.30;;
57295;SDS011;43146;50.976;18.216;2023-07-16T02:08:02;12.20;;;6.90;;
57295;SDS011;43146;50.976;18.216;2023-07-16T02:10:29;16.20;;;6.70;;
57295;SDS011;43146;50.976;18.216;2023-07-16T02:12:54;11.50;;;6.90;;
57295;SDS011;43146;50.976;18.216;2023-07-16T02:15:20;13.90;;;6.40;;
57295;SDS011;43146;50.976;18.216;2023-07-16T02:17:47;12.00;;;6.50;;
57295;SDS011;43146;50.976;18.216;2023-07-16T02:20:13;18.20;;;6.90;;
57295;SDS011;43146;50.976;18.216;2023-07-16T02:22:39;16.90;;;7.00;;
57295;SDS011;43146;50.976;18.216;2023-07-16T02:25:05;12.40;;;7.00;;
57295;SDS011;43146;50.976;18.216;2023-07-16T02:27:43;11.70;;;6.40;;
57295;SDS011;43146;50.976;18.216;2023-07-16T02:30:09;12.50;;;7.50;;
57295;SDS011;43146;50.976;18.216;2023-07-16T02:32:35;15.60;;;7.70;;
57295;SDS011;43146;50.976;18.216;2023-07-16T02:35:01;14.30;;;6.90;;
57295;SDS011;43146;50.976;18.216;2023-07-16T02:37:28;13.60;;;6.70;;
57295;SDS011;43146;50.976;18.216;2023-07-16T02:39:54;13.70;;;7.50;;
57295;SDS011;43146;50.976;18.216;2023-07-16T02:42:20;12.60;;;7.20;;
57295;SDS011;43146;50.976;18.216;2023-07-16T02:44:45;12.10;;;7.50;;
57295;SDS011;43146;50.976;18.216;2023-07-16T02:47:11;13.00;;;7.40;;
57295;SDS011;43146;50.976;18.216;2023-07-16T02:49:37;13.40;;;7.50;;
57295;SDS011;43146;50.976;18.216;2023-07-16T02:52:04;13.70;;;7.80;;
57295;SDS011;43146;50.976;18.216;2023-07-16T02:54:31;17.10;;;7.70;;
57295;SDS011;43146;50.976;18.216;2023-07-16T02:56:57;15.70;;;7.60;;
57295;SDS011;43146;50.976;18.216;2023-07-16T02:59:23;13.70;;;7.70;;
57295;SDS011;43146;50.976;18.216;2023-07-16T03:01:49;13.80;;;7.80;;
57295;SDS011;43146;50.976;18.216;2023-07-16T03:04:16;13.60;;;7.10;;
57295;SDS011;43146;50.976;18.216;2023-07-16T03:06:42;14.40;;;7.80;;
57295;SDS011;43146;50.976;18.216;2023-07-16T03:09:08;14.10;;;7.30;;
57295;SDS011;43146;50.976;18.216;2023-07-16T03:11:33;12.90;;;6.90;;
57295;SDS011;43146;50.976;18.216;2023-07-16T03:13:59;14.90;;;7.40;;
57295;SDS011;43146;50.976;18.216;2023-07-16T03:16:25;13.30;;;7.20;;
57295;SDS011;43146;50.976;18.216;2023-07-16T03:18:50;14.10;;;6.90;;
57295;SDS011;43146;50.976;18.216;2023-07-16T03:21:18;13.30;;;7.10;;
57295;SDS011;43146;50.976;18.216;2023-07-16T03:23:44;14.00;;;9.20;;
57295;SDS011;43146;50.976;18.216;2023-07-16T03:26:09;13.60;;;7.70;;
57295;SDS011;43146;50.976;18.216;2023-07-16T03:28:35;13.10;;;7.30;;
57295;SDS011;43146;50.976;18.216;2023-07-16T03:31:01;15.30;;;7.80;;
57295;SDS011;43146;50.976;18.216;2023-07-16T03:33:27;13.30;;;7.50;;
57295;SDS011;43146;50.976;18.216;2023-07-16T03:35:53;14.60;;;7.90;;
57295;SDS011;43146;50.976;18.216;2023-07-16T03:38:18;13.90;;;7.00;;
57295;SDS011;43146;50.976;18.216;2023-07-16T03:40:48;14.90;;;7.30;;
57295;SDS011;43146;50.976;18.216;2023-07-16T03:43:15;12.30;;;7.30;;
57295;SDS011;43146;50.976;18.216;2023-07-16T03:45:42;13.40;;;7.40;;
57295;SDS011;43146;50.976;18.216;2023-07-16T03:48:08;15.30;;;7.30;;
57295;SDS011;43146;50.976;18.216;2023-07-16T03:50:33;12.60;;;7.50;;
57295;SDS011;43146;50.976;18.216;2023-07-16T03:53:00;15.40;;;6.90;;
57295;SDS011;43146;50.976;18.216;2023-07-16T03:55:26;13.80;;;7.30;;
57295;SDS011;43146;50.976;18.216;2023-07-16T03:57:52;14.30;;;7.10;;
57295;SDS011;43146;50.976;18.216;2023-07-16T04:00:17;11.70;;;7.50;;
57295;SDS011;43146;50.976;18.216;2023-07-16T04:02:43;13.70;;;7.10;;
57295;SDS011;43146;50.976;18.216;2023-07-16T04:05:09;13.00;;;7.70;;
57295;SDS011;43146;50.976;18.216;2023-07-16T04:07:35;12.50;;;6.90;;
57295;SDS011;43146;50.976;18.216;2023-07-16T04:10:01;12.40;;;7.30;;
57295;SDS011;43146;50.976;18.216;2023-07-16T04:12:27;14.20;;;7.60;;
57295;SDS011;43146;50.976;18.216;2023-07-16T04:14:55;12.60;;;7.50;;
57295;SDS011;43146;50.976;18.216;2023-07-16T04:17:22;14.00;;;7.20;;
57295;SDS011;43146;50.976;18.216;2023-07-16T04:19:49;13.30;;;6.90;;
57295;SDS011;43146;50.976;18.216;2023-07-16T04:22:15;12.90;;;7.30;;
57295;SDS011;43146;50.976;18.216;2023-07-16T04:24:41;12.00;;;6.80;;
57295;SDS011;43146;50.976;18.216;2023-07-16T04:27:06;13.90;;;8.10;;
57295;SDS011;43146;50.976;18.216;2023-07-16T04:29:32;12.50;;;7.00;;
57295;SDS011;43146;50.976;18.216;2023-07-16T04:31:58;12.90;;;7.60;;
57295;SDS011;43146;50.976;18.216;2023-07-16T04:34:24;13.70;;;7.30;;
57295;SDS011;43146;50.976;18.216;2023-07-16T04:36:50;12.60;;;6.40;;
57295;SDS011;43146;50.976;18.216;2023-07-16T04:39:15;11.30;;;6.70;;
57295;SDS011;43146;50.976;18.216;2023-07-16T04:41:41;12.20;;;7.10;;
57295;SDS011;43146;50.976;18.216;2023-07-16T04:44:07;13.20;;;7.30;;
57295;SDS011;43146;50.976;18.216;2023-07-16T04:46:32;14.10;;;8.10;;
57295;SDS011;43146;50.976;18.216;2023-07-16T04:48:59;11.70;;;7.70;;
57295;SDS011;43146;50.976;18.216;2023-07-16T04:51:25;12.40;;;7.90;;
57295;SDS011;43146;50.976;18.216;2023-07-16T04:53:50;12.20;;;8.40;;
57295;SDS011;43146;50.976;18.216;2023-07-16T04:56:16;15.70;;;8.10;;
57295;SDS011;43146;50.976;18.216;2023-07-16T04:58:43;12.80;;;8.20;;
57295;SDS011;43146;50.976;18.216;2023-07-16T05:01:09;12.40;;;7.40;;
57295;SDS011;43146;50.976;18.216;2023-07-16T05:03:35;14.60;;;7.60;;
57295;SDS011;43146;50.976;18.216;2023-07-16T05:06:01;14.90;;;7.60;;
57295;SDS011;43146;50.976;18.216;2023-07-16T05:08:30;12.50;;;7.40;;
57295;SDS011;43146;50.976;18.216;2023-07-16T05:10:56;12.00;;;7.90;;
57295;SDS011;43146;50.976;18.216;2023-07-16T05:13:22;13.20;;;8.00;;
57295;SDS011;43146;50.976;18.216;2023-07-16T05:15:48;12.80;;;7.90;;
57295;SDS011;43146;50.976;18.216;2023-07-16T05:18:13;13.60;;;8.40;;
57295;SDS011;43146;50.976;18.216;2023-07-16T05:20:39;11.00;;;7.00;;
57295;SDS011;43146;50.976;18.216;2023-07-16T05:23:06;12.20;;;7.60;;
57295;SDS011;43146;50.976;18.216;2023-07-16T05:25:31;13.80;;;7.60;;
57295;SDS011;43146;50.976;18.216;2023-07-16T05:27:57;14.50;;;7.70;;
57295;SDS011;43146;50.976;18.216;2023-07-16T05:30:27;17.30;;;8.10;;
57295;SDS011;43146;50.976;18.216;2023-07-16T05:32:52;13.50;;;8.30;;
57295;SDS011;43146;50.976;18.216;2023-07-16T05:35:18;12.60;;;7.70;;
57295;SDS011;43146;50.976;18.216;2023-07-16T05:37:44;13.90;;;7.80;;
57295;SDS011;43146;50.976;18.216;2023-07-16T05:40:10;13.60;;;7.70;;
57295;SDS011;43146;50.976;18.216;2023-07-16T05:42:36;13.10;;;7.90;;
57295;SDS011;43146;50.976;18.216;2023-07-16T05:45:02;12.80;;;7.60;;
57295;SDS011;43146;50.976;18.216;2023-07-16T05:47:28;13.50;;;7.90;;
57295;SDS011;43146;50.976;18.216;2023-07-16T05:49:54;14.60;;;7.80;;
57295;SDS011;43146;50.976;18.216;2023-07-16T05:52:20;14.30;;;7.40;;
57295;SDS011;43146;50.976;18.216;2023-07-16T05:54:45;13.30;;;8.00;;
57295;SDS011;43146;50.976;18.216;2023-07-16T05:57:11;13.30;;;7.30;;
57295;SDS011;43146;50.976;18.216;2023-07-16T05:59:37;14.20;;;6.90;;
57295;SDS011;43146;50.976;18.216;2023-07-16T06:02:03;14.80;;;7.00;;
57295;SDS011;43146;50.976;18.216;2023-07-16T06:04:29;11.20;;;6.70;;
57295;SDS011;43146;50.976;18.216;2023-07-16T06:06:56;13.20;;;6.70;;
57295;SDS011;43146;50.976;18.216;2023-07-16T06:09:22;13.80;;;6.60;;
57295;SDS011;43146;50.976;18.216;2023-07-16T06:11:47;13.70;;;6.10;;
57295;SDS011;43146;50.976;18.216;2023-07-16T06:14:15;13.90;;;6.30;;
57295;SDS011;43146;50.976;18.216;2023-07-16T06:16:41;13.00;;;6.00;;
57295;SDS011;43146;50.976;18.216;2023-07-16T06:19:07;9.90;;;5.10;;
57295;SDS011;43146;50.976;18.216;2023-07-16T06:21:33;12.70;;;5.10;;
57295;SDS011;43146;50.976;18.216;2023-07-16T06:23:58;12.70;;;5.30;;
57295;SDS011;43146;50.976;18.216;2023-07-16T06:26:24;10.70;;;4.70;;
57295;SDS011;43146;50.976;18.216;2023-07-16T06:28:50;9.40;;;5.00;;
57295;SDS011;43146;50.976;18.216;2023-07-16T06:31:16;10.30;;;4.90;;
57295;SDS011;43146;50.976;18.216;2023-07-16T06:33:43;10.30;;;4.50;;
57295;SDS011;43146;50.976;18.216;2023-07-16T06:36:12;12.20;;;4.60;;
57295;SDS011;43146;50.976;18.216;2023-07-16T06:38:38;11.60;;;4.80;;
57295;SDS011;43146;50.976;18.216;2023-07-16T06:41:04;8.70;;;3.90;;
57295;SDS011;43146;50.976;18.216;2023-07-16T06:43:31;8.40;;;3.80;;
57295;SDS011;43146;50.976;18.216;2023-07-16T06:46:00;8.10;;;3.60;;
57295;SDS011;43146;50.976;18.216;2023-07-16T06:48:26;9.40;;;3.60;;
57295;SDS011;43146;50.976;18.216;2023-07-16T06:50:52;9.20;;;3.30;;
57295;SDS011;43146;50.976;18.216;2023-07-16T06:53:18;8.10;;;3.20;;
57295;SDS011;43146;50.976;18.216;2023-07-16T06:55:44;7.80;;;3.20;;
57295;SDS011;43146;50.976;18.216;2023-07-16T06:58:10;10.00;;;3.10;;
57295;SDS011;43146;50.976;18.216;2023-07-16T07:00:36;6.50;;;2.60;;
57295;SDS011;43146;50.976;18.216;2023-07-16T07:03:02;9.00;;;2.80;;
57295;SDS011;43146;50.976;18.216;2023-07-16T07:05:28;7.90;;;2.70;;
57295;SDS011;43146;50.976;18.216;2023-07-16T07:07:54;9.50;;;2.80;;
57295;SDS011;43146;50.976;18.216;2023-07-16T07:10:19;7.00;;;2.40;;
57295;SDS011;43146;50.976;18.216;2023-07-16T07:12:45;10.40;;;2.70;;
57295;SDS011;43146;50.976;18.216;2023-07-16T07:15:11;8.00;;;2.40;;
57295;SDS011;43146;50.976;18.216;2023-07-16T07:17:37;7.10;;;2.60;;
57295;SDS011;43146;50.976;18.216;2023-07-16T07:20:04;8.30;;;2.30;;
57295;SDS011;43146;50.976;18.216;2023-07-16T07:22:32;9.40;;;2.80;;
57295;SDS011;43146;50.976;18.216;2023-07-16T07:24:58;7.60;;;2.40;;
57295;SDS011;43146;50.976;18.216;2023-07-16T07:27:24;8.40;;;2.50;;
57295;SDS011;43146;50.976;18.216;2023-07-16T07:29:50;6.70;;;2.50;;
57295;SDS011;43146;50.976;18.216;2023-07-16T07:32:20;6.30;;;2.60;;
57295;SDS011;43146;50.976;18.216;2023-07-16T07:34:46;9.60;;;3.10;;
57295;SDS011;43146;50.976;18.216;2023-07-16T07:37:12;10.50;;;2.60;;
57295;SDS011;43146;50.976;18.216;2023-07-16T07:39:39;9.70;;;2.80;;
57295;SDS011;43146;50.976;18.216;2023-07-16T07:42:06;7.30;;;2.60;;
57295;SDS011;43146;50.976;18.216;2023-07-16T07:44:32;7.30;;;2.60;;
57295;SDS011;43146;50.976;18.216;2023-07-16T07:46:58;6.80;;;2.80;;
57295;SDS011;43146;50.976;18.216;2023-07-16T07:49:23;7.80;;;2.50;;
57295;SDS011;43146;50.976;18.216;2023-07-16T07:51:50;8.90;;;2.60;;
57295;SDS011;43146;50.976;18.216;2023-07-16T07:54:15;6.00;;;2.50;;
57295;SDS011;43146;50.976;18.216;2023-07-16T07:56:42;7.80;;;3.10;;
57295;SDS011;43146;50.976;18.216;2023-07-16T07:59:08;10.60;;;2.80;;
57295;SDS011;43146;50.976;18.216;2023-07-16T08:01:34;6.40;;;2.50;;
57295;SDS011;43146;50.976;18.216;2023-07-16T08:04:01;6.00;;;2.60;;
57295;SDS011;43146;50.976;18.216;2023-07-16T08:06:27;7.80;;;2.90;;
57295;SDS011;43146;50.976;18.216;2023-07-16T08:08:53;8.20;;;2.70;;
57295;SDS011;43146;50.976;18.216;2023-07-16T08:11:19;8.60;;;2.80;;
57295;SDS011;43146;50.976;18.216;2023-07-16T08:13:45;8.20;;;3.00;;
57295;SDS011;43146;50.976;18.216;2023-07-16T08:16:11;8.50;;;2.70;;
57295;SDS011;43146;50.976;18.216;2023-07-16T08:18:36;7.10;;;2.70;;
57295;SDS011;43146;50.976;18.216;2023-07-16T08:21:02;7.40;;;2.80;;
57295;SDS011;43146;50.976;18.216;2023-07-16T08:23:28;8.40;;;3.10;;
57295;SDS011;43146;50.976;18.216;2023-07-16T08:25:54;9.20;;;2.80;;
57295;SDS011;43146;50.976;18.216;2023-07-16T08:28:20;8.60;;;3.20;;
57295;SDS011;43146;50.976;18.216;2023-07-16T08:30:46;8.90;;;2.70;;
57295;SDS011;43146;50.976;18.216;2023-07-16T08:33:14;7.70;;;2.90;;
57295;SDS011;43146;50.976;18.216;2023-07-16T08:35:40;10.40;;;2.80;;
57295;SDS011;43146;50.976;18.216;2023-07-16T08:38:07;7.50;;;2.60;;
57295;SDS011;43146;50.976;18.216;2023-07-16T08:40:36;7.70;;;2.40;;
57295;SDS011;43146;50.976;18.216;2023-07-16T08:43:07;7.10;;;2.40;;
57295;SDS011;43146;50.976;18.216;2023-07-16T08:45:35;6.60;;;2.50;;
57295;SDS011;43146;50.976;18.216;2023-07-16T08:48:06;6.20;;;2.50;;
57295;SDS011;43146;50.976;18.216;2023-07-16T08:50:33;7.00;;;2.40;;
57295;SDS011;43146;50.976;18.216;2023-07-16T08:53:06;7.60;;;2.50;;
57295;SDS011;43146;50.976;18.216;2023-07-16T08:55:32;5.90;;;2.30;;
57295;SDS011;43146;50.976;18.216;2023-07-16T08:58:00;6.50;;;2.10;;
57295;SDS011;43146;50.976;18.216;2023-07-16T09:00:26;5.30;;;2.10;;
57295;SDS011;43146;50.976;18.216;2023-07-16T09:02:53;6.80;;;2.70;;
57295;SDS011;43146;50.976;18.216;2023-07-16T09:05:22;5.70;;;2.20;;
57295;SDS011;43146;50.976;18.216;2023-07-16T09:07:48;8.70;;;2.40;;
57295;SDS011;43146;50.976;18.216;2023-07-16T09:10:14;5.00;;;2.20;;
57295;SDS011;43146;50.976;18.216;2023-07-16T09:12:44;6.80;;;2.40;;
57295;SDS011;43146;50.976;18.216;2023-07-16T09:15:11;8.70;;;2.40;;
57295;SDS011;43146;50.976;18.216;2023-07-16T09:17:38;6.30;;;2.50;;
57295;SDS011;43146;50.976;18.216;2023-07-16T09:20:05;7.90;;;2.40;;
57295;SDS011;43146;50.976;18.216;2023-07-16T09:22:32;8.90;;;2.40;;
57295;SDS011;43146;50.976;18.216;2023-07-16T09:24:59;7.30;;;2.40;;
57295;SDS011;43146;50.976;18.216;2023-07-16T09:27:30;7.20;;;2.40;;
57295;SDS011;43146;50.976;18.216;2023-07-16T09:29:57;8.20;;;2.60;;
57295;SDS011;43146;50.976;18.216;2023-07-16T09:32:37;6.40;;;2.40;;
57295;SDS011;43146;50.976;18.216;2023-07-16T09:35:11;6.40;;;2.30;;
57295;SDS011;43146;50.976;18.216;2023-07-16T09:37:43;8.20;;;2.30;;
57295;SDS011;43146;50.976;18.216;2023-07-16T09:40:10;6.70;;;2.10;;
57295;SDS011;43146;50.976;18.216;2023-07-16T09:42:40;5.90;;;2.20;;
57295;SDS011;43146;50.976;18.216;2023-07-16T09:45:08;6.70;;;2.20;;
57295;SDS011;43146;50.976;18.216;2023-07-16T09:47:38;5.00;;;2.00;;
57295;SDS011;43146;50.976;18.216;2023-07-16T09:50:06;5.40;;;2.30;;
57295;SDS011;43146;50.976;18.216;2023-07-16T09:52:32;7.30;;;2.50;;
57295;SDS011;43146;50.976;18.216;2023-07-16T09:55:01;8.90;;;2.80;;
57295;SDS011;43146;50.976;18.216;2023-07-16T09:57:30;5.60;;;2.60;;
57295;SDS011;43146;50.976;18.216;2023-07-16T10:00:00;10.70;;;5.00;;
57295;SDS011;43146;50.976;18.216;2023-07-16T10:02:33;12.00;;;6.20;;
57295;SDS011;43146;50.976;18.216;2023-07-16T10:04:59;5.60;;;2.20;;
57295;SDS011;43146;50.976;18.216;2023-07-16T10:07:25;6.70;;;2.40;;
57295;SDS011;43146;50.976;18.216;2023-07-16T10:09:53;8.80;;;2.70;;
57295;SDS011;43146;50.976;18.216;2023-07-16T10:12:21;9.20;;;2.30;;
57295;SDS011;43146;50.976;18.216;2023-07-16T10:14:51;4.50;;;2.20;;
57295;SDS011;43146;50.976;18.216;2023-07-16T10:17:22;6.10;;;2.20;;
57295;SDS011;43146;50.976;18.216;2023-07-16T10:19:57;4.70;;;2.10;;
57295;SDS011;43146;50.976;18.216;2023-07-16T10:22:43;8.90;;;3.30;;
57295;SDS011;43146;50.976;18.216;2023-07-16T10:27:43;5.90;;;1.80;;
57295;SDS011;43146;50.976;18.216;2023-07-16T10:30:10;4.90;;;2.00;;
57295;SDS011;43146;50.976;18.216;2023-07-16T10:32:37;4.60;;;1.90;;
57295;SDS011;43146;50.976;18.216;2023-07-16T10:35:04;5.30;;;1.90;;
57295;SDS011;43146;50.976;18.216;2023-07-16T10:37:31;9.40;;;3.70;;
57295;SDS011;43146;50.976;18.216;2023-07-16T10:39:57;7.50;;;2.20;;
57295;SDS011;43146;50.976;18.216;2023-07-16T10:42:25;5.20;;;2.20;;
57295;SDS011;43146;50.976;18.216;2023-07-16T10:44:52;6.40;;;2.40;;
57295;SDS011;43146;50.976;18.216;2023-07-16T10:47:22;5.80;;;2.40;;
57295;SDS011;43146;50.976;18.216;2023-07-16T10:49:50;6.30;;;2.20;;
57295;SDS011;43146;50.976;18.216;2023-07-16T10:52:17;5.10;;;1.90;;
57295;SDS011;43146;50.976;18.216;2023-07-16T10:54:43;5.40;;;2.10;;
57295;SDS011;43146;50.976;18.216;2023-07-16T10:57:10;7.60;;;2.20;;
57295;SDS011;43146;50.976;18.216;2023-07-16T10:59:42;6.00;;;2.70;;
57295;SDS011;43146;50.976;18.216;2023-07-16T11:02:11;6.40;;;2.00;;
57295;SDS011;43146;50.976;18.216;2023-07-16T11:04:39;5.50;;;1.70;;
57295;SDS011;43146;50.976;18.216;2023-07-16T11:07:08;4.30;;;2.00;;
57295;SDS011;43146;50.976;18.216;2023-07-16T11:09:39;4.70;;;1.70;;
57295;SDS011;43146;50.976;18.216;2023-07-16T11:12:10;5.20;;;2.20;;
57295;SDS011;43146;50.976;18.216;2023-07-16T11:14:44;6.30;;;2.20;;
57295;SDS011;43146;50.976;18.216;2023-07-16T11:17:11;4.40;;;1.90;;
57295;SDS011;43146;50.976;18.216;2023-07-16T11:19:38;3.90;;;1.90;;
57295;SDS011;43146;50.976;18.216;2023-07-16T11:22:05;5.90;;;2.10;;
57295;SDS011;43146;50.976;18.216;2023-07-16T11:24:39;5.30;;;2.00;;
57295;SDS011;43146;50.976;18.216;2023-07-16T11:30:01;6.50;;;2.20;;
57295;SDS011;43146;50.976;18.216;2023-07-16T11:32:35;7.10;;;2.10;;
57295;SDS011;43146;50.976;18.216;2023-07-16T11:35:01;6.90;;;2.10;;
57295;SDS011;43146;50.976;18.216;2023-07-16T11:37:32;10.30;;;5.50;;
57295;SDS011;43146;50.976;18.216;2023-07-16T11:40:06;10.20;;;5.40;;
57295;SDS011;43146;50.976;18.216;2023-07-16T11:42:39;13.10;;;7.10;;
57295;SDS011;43146;50.976;18.216;2023-07-16T11:45:20;8.70;;;4.10;;
57295;SDS011;43146;50.976;18.216;2023-07-16T11:47:53;10.40;;;3.90;;
57295;SDS011;43146;50.976;18.216;2023-07-16T11:50:20;9.50;;;3.90;;
57295;SDS011;43146;50.976;18.216;2023-07-16T11:52:53;4.70;;;2.30;;
57295;SDS011;43146;50.976;18.216;2023-07-16T11:55:19;5.30;;;2.20;;
57295;SDS011;43146;50.976;18.216;2023-07-16T11:57:45;7.10;;;2.20;;
57295;SDS011;43146;50.976;18.216;2023-07-16T12:00:12;6.90;;;2.90;;
57295;SDS011;43146;50.976;18.216;2023-07-16T12:02:38;20.80;;;14.70;;
57295;SDS011;43146;50.976;18.216;2023-07-16T12:05:05;18.50;;;12.70;;
57295;SDS011;43146;50.976;18.216;2023-07-16T12:07:33;12.90;;;8.20;;
57295;SDS011;43146;50.976;18.216;2023-07-16T12:10:01;4.70;;;2.20;;
57295;SDS011;43146;50.976;18.216;2023-07-16T12:12:29;5.20;;;2.10;;
57295;SDS011;43146;50.976;18.216;2023-07-16T12:14:55;4.60;;;1.90;;
57295;SDS011;43146;50.976;18.216;2023-07-16T12:17:21;5.00;;;2.20;;
57295;SDS011;43146;50.976;18.216;2023-07-16T12:19:48;4.40;;;2.10;;
57295;SDS011;43146;50.976;18.216;2023-07-16T12:22:16;6.30;;;2.30;;
57295;SDS011;43146;50.976;18.216;2023-07-16T12:24:42;6.20;;;2.00;;
57295;SDS011;43146;50.976;18.216;2023-07-16T12:27:09;5.90;;;2.30;;
57295;SDS011;43146;50.976;18.216;2023-07-16T12:29:36;6.40;;;2.30;;
57295;SDS011;43146;50.976;18.216;2023-07-16T12:32:02;6.00;;;2.20;;
57295;SDS011;43146;50.976;18.216;2023-07-16T12:34:31;10.70;;;3.20;;
57295;SDS011;43146;50.976;18.216;2023-07-16T12:36:57;10.80;;;2.10;;
57295;SDS011;43146;50.976;18.216;2023-07-16T12:39:23;5.60;;;2.30;;
57295;SDS011;43146;50.976;18.216;2023-07-16T12:41:49;6.60;;;2.20;;
57295;SDS011;43146;50.976;18.216;2023-07-16T12:44:15;5.30;;;2.30;;
57295;SDS011;43146;50.976;18.216;2023-07-16T12:46:41;7.00;;;2.60;;
57295;SDS011;43146;50.976;18.216;2023-07-16T12:49:07;11.70;;;5.00;;
57295;SDS011;43146;50.976;18.216;2023-07-16T12:51:33;5.60;;;2.20;;
57295;SDS011;43146;50.976;18.216;2023-07-16T12:54:00;7.80;;;2.30;;
57295;SDS011;43146;50.976;18.216;2023-07-16T12:56:27;6.00;;;2.00;;
57295;SDS011;43146;50.976;18.216;2023-07-16T12:58:53;4.60;;;2.20;;
57295;SDS011;43146;50.976;18.216;2023-07-16T13:01:18;8.00;;;2.40;;
57295;SDS011;43146;50.976;18.216;2023-07-16T13:03:45;4.90;;;2.20;;
57295;SDS011;43146;50.976;18.216;2023-07-16T13:06:14;6.50;;;2.20;;
57295;SDS011;43146;50.976;18.216;2023-07-16T13:08:40;5.20;;;2.10;;
57295;SDS011;43146;50.976;18.216;2023-07-16T13:11:05;4.30;;;1.80;;
57295;SDS011;43146;50.976;18.216;2023-07-16T13:13:31;6.30;;;1.90;;
57295;SDS011;43146;50.976;18.216;2023-07-16T13:16:00;5.60;;;2.20;;
57295;SDS011;43146;50.976;18.216;2023-07-16T13:18:30;7.60;;;2.10;;
57295;SDS011;43146;50.976;18.216;2023-07-16T13:20:56;8.20;;;2.10;;
57295;SDS011;43146;50.976;18.216;2023-07-16T13:23:23;5.00;;;2.10;;
57295;SDS011;43146;50.976;18.216;2023-07-16T13:25:49;5.70;;;2.20;;
57295;SDS011;43146;50.976;18.216;2023-07-16T13:28:20;6.40;;;2.60;;
57295;SDS011;43146;50.976;18.216;2023-07-16T13:30:46;9.40;;;3.80;;
57295;SDS011;43146;50.976;18.216;2023-07-16T13:33:12;12.80;;;4.80;;
57295;SDS011;43146;50.976;18.216;2023-07-16T13:35:39;11.00;;;5.70;;
57295;SDS011;43146;50.976;18.216;2023-07-16T13:38:05;14.10;;;6.80;;
57295;SDS011;43146;50.976;18.216;2023-07-16T13:40:31;10.40;;;3.80;;
57295;SDS011;43146;50.976;18.216;2023-07-16T13:42:58;7.20;;;2.90;;
57295;SDS011;43146;50.976;18.216;2023-07-16T13:45:24;5.20;;;2.20;;
57295;SDS011;43146;50.976;18.216;2023-07-16T13:47:50;5.40;;;2.20;;
57295;SDS011;43146;50.976;18.216;2023-07-16T13:50:21;6.10;;;2.30;;
57295;SDS011;43146;50.976;18.216;2023-07-16T13:52:47;8.90;;;2.10;;
57295;SDS011;43146;50.976;18.216;2023-07-16T13:55:14;5.80;;;2.30;;
57295;SDS011;43146;50.976;18.216;2023-07-16T13:57:40;5.70;;;2.30;;
57295;SDS011;43146;50.976;18.216;2023-07-16T14:00:08;5.30;;;2.20;;
57295;SDS011;43146;50.976;18.216;2023-07-16T14:02:38;10.50;;;2.40;;
57295;SDS011;43146;50.976;18.216;2023-07-16T14:05:04;11.20;;;2.30;;
57295;SDS011;43146;50.976;18.216;2023-07-16T14:07:33;8.50;;;2.40;;
57295;SDS011;43146;50.976;18.216;2023-07-16T14:09:59;8.20;;;2.30;;
57295;SDS011;43146;50.976;18.216;2023-07-16T14:12:25;6.10;;;2.20;;
57295;SDS011;43146;50.976;18.216;2023-07-16T14:14:51;4.30;;;2.20;;
57295;SDS011;43146;50.976;18.216;2023-07-16T14:17:17;6.50;;;2.40;;
57295;SDS011;43146;50.976;18.216;2023-07-16T14:19:43;5.70;;;2.10;;
57295;SDS011;43146;50.976;18.216;2023-07-16T14:22:09;5.60;;;2.20;;
57295;SDS011;43146;50.976;18.216;2023-07-16T14:24:39;6.70;;;2.50;;
57295;SDS011;43146;50.976;18.216;2023-07-16T14:27:06;6.10;;;2.50;;
57295;SDS011;43146;50.976;18.216;2023-07-16T14:29:32;6.90;;;2.60;;
57295;SDS011;43146;50.976;18.216;2023-07-16T14:32:01;6.50;;;2.30;;
57295;SDS011;43146;50.976;18.216;2023-07-16T14:34:28;6.40;;;2.50;;
57295;SDS011;43146;50.976;18.216;2023-07-16T14:36:53;6.40;;;2.40;;
57295;SDS011;43146;50.976;18.216;2023-07-16T14:39:19;8.00;;;2.50;;
57295;SDS011;43146;50.976;18.216;2023-07-16T14:41:45;5.70;;;2.50;;